Time;durP1;ratioP1;P1;durP2;ratioP2;P2;SDS_P1;SDS_P2;PMS_P1;PMS_P2;Temp;Humidity;BMP_temperature;BMP_pressure;BME280_temperature;BME280_humidity;BME280_pressure;Samples;Min_cycle;Max_cycle;Signal;HPM_P1;HPM_P2
2021/07/23 00:00:16;;;;;;;4.20;1.90;;;;;;;18.68;60.09;99634.41;1740282;81;21039;-71
2021/07/23 00:02:43;;;;;;;2.17;1.60;;;;;;;18.64;60.29;99635.33;1768311;81;23296;-74
2021/07/23 00:05:11;;;;;;;3.40;1.67;;;;;;;18.57;61.19;99634.36;1737209;81;20995;-74
2021/07/23 00:07:37;;;;;;;3.42;1.75;;;;;;;18.51;62.38;99630.67;1755517;81;21007;-72
2021/07/23 00:10:06;;;;;;;3.25;1.50;;;;;;;18.46;63.24;99631.58;1717838;82;20940;-72
2021/07/23 00:12:34;;;;;;;3.37;2.05;;;;;;;18.43;63.23;99636.80;1732423;81;21034;-74
2021/07/23 00:15:03;;;;;;;5.53;2.08;;;;;;;18.40;63.88;99642.86;1729621;83;20948;-73
2021/07/23 00:17:29;;;;;;;3.05;1.67;;;;;;;18.35;64.13;99638.33;1729094;82;21089;-71
2021/07/23 00:19:56;;;;;;;3.45;1.62;;;;;;;18.30;64.80;99634.34;1730147;81;21035;-72
2021/07/23 00:22:22;;;;;;;8.48;3.45;;;;;;;18.27;65.15;99633.59;1688298;83;21552;-73
2021/07/23 00:24:48;;;;;;;2.15;1.90;;;;;;;18.25;65.42;99639.33;1698825;83;21055;-72
2021/07/23 00:27:15;;;;;;;5.60;1.65;;;;;;;18.22;65.62;99635.83;1729723;83;21485;-72
2021/07/23 00:29:42;;;;;;;1.62;1.32;;;;;;;18.20;66.13;99640.78;1729478;83;21018;-72
2021/07/23 00:32:09;;;;;;;3.52;2.20;;;;;;;18.19;66.30;99643.25;1709930;83;21242;-74
2021/07/23 00:34:35;;;;;;;13.32;1.90;;;;;;;18.18;66.26;99642.98;1726160;82;21025;-71
2021/07/23 00:37:03;;;;;;;1.50;1.37;;;;;;;18.17;66.31;99640.59;1696580;82;21056;-74
2021/07/23 00:39:30;;;;;;;2.00;1.80;;;;;;;18.12;66.36;99636.59;1739288;82;21040;-76
2021/07/23 00:41:57;;;;;;;2.17;1.90;;;;;;;18.07;66.56;99647.58;1726332;82;20937;-73
2021/07/23 00:44:23;;;;;;;6.03;1.90;;;;;;;18.02;66.88;99640.86;1688245;83;21068;-73
2021/07/23 00:46:49;;;;;;;3.90;1.85;;;;;;;17.98;67.39;99649.38;1733036;81;21086;-80
2021/07/23 00:49:17;;;;;;;1.65;1.27;;;;;;;17.92;67.62;99640.49;1768035;81;20991;-79
2021/07/23 00:51:44;;;;;;;1.95;1.35;;;;;;;17.91;67.97;99648.94;1700053;83;21121;-78
2021/07/23 00:54:12;;;;;;;3.87;1.65;;;;;;;17.91;68.16;99648.39;1721628;82;21515;-78
2021/07/23 00:56:39;;;;;;;3.22;2.20;;;;;;;17.91;68.38;99642.95;1696744;83;21035;-78
2021/07/23 00:59:07;;;;;;;4.80;1.75;;;;;;;17.91;68.53;99645.67;1720890;83;21023;-77
2021/07/23 01:01:34;;;;;;;4.75;2.05;;;;;;;17.91;68.91;99643.50;1725357;83;21047;-80
2021/07/23 01:04:02;;;;;;;4.47;1.47;;;;;;;17.90;69.17;99645.96;1727630;82;23366;-77
2021/07/23 01:06:35;;;;;;;2.45;2.25;;;;;;;17.86;69.21;99640.32;1715435;82;21657;-76
2021/07/23 01:09:03;;;;;;;2.72;2.30;;;;;;;17.83;69.41;99641.73;1675184;84;21028;-79
2021/07/23 01:11:31;;;;;;;4.17;2.02;;;;;;;17.78;69.80;99635.57;1711207;83;21087;-80
2021/07/23 01:14:17;;;;;;;2.30;2.02;;;;;;;17.77;70.10;99643.47;1729263;83;21552;-77
2021/07/23 01:16:44;;;;;;;1.70;1.60;;;;;;;17.76;70.29;99639.94;1729531;83;21338;-76
2021/07/23 01:19:11;;;;;;;2.67;1.80;;;;;;;17.77;70.33;99636.67;1716603;83;21082;-75
2021/07/23 01:21:40;;;;;;;4.47;2.05;;;;;;;17.78;70.21;99636.94;1729778;83;21051;-76
2021/07/23 01:24:11;;;;;;;3.87;1.98;;;;;;;17.75;70.11;99636.15;1688249;83;20979;-76
2021/07/23 01:26:51;;;;;;;2.65;1.70;;;;;;;17.72;70.15;99646.28;1729903;83;21045;-75
2021/07/23 01:29:19;;;;;;;2.02;1.80;;;;;;;17.67;70.57;99648.53;1678299;84;21040;-75
2021/07/23 01:31:46;;;;;;;6.58;2.02;;;;;;;17.63;71.02;99643.98;1704990;82;20979;-76
2021/07/23 01:34:13;;;;;;;4.83;2.20;;;;;;;17.58;71.26;99647.56;1681389;84;21587;-77
2021/07/23 01:36:40;;;;;;;1.82;1.62;;;;;;;17.56;71.47;99643.52;1666697;84;21627;-77
2021/07/23 01:39:06;;;;;;;3.75;1.70;;;;;;;17.53;71.49;99638.13;1697367;84;21560;-76
2021/07/23 01:41:34;;;;;;;2.65;1.65;;;;;;;17.49;71.64;99636.30;1700614;83;21023;-77
2021/07/23 01:44:04;;;;;;;4.05;1.60;;;;;;;17.45;71.79;99634.73;1688037;85;20944;-77
2021/07/23 01:46:30;;;;;;;2.12;1.90;;;;;;;17.43;71.90;99642.36;1700773;84;21515;-77
2021/07/23 01:49:05;;;;;;;1.70;1.60;;;;;;;17.41;72.14;99639.93;1693547;84;20988;-77
2021/07/23 01:51:33;;;;;;;3.02;1.60;;;;;;;17.43;72.08;99639.64;1700949;82;21056;-77
2021/07/23 01:53:59;;;;;;;2.90;1.85;;;;;;;17.41;72.17;99641.29;1702373;82;21083;-78
2021/07/23 01:56:27;;;;;;;2.00;1.70;;;;;;;17.41;72.15;99643.20;1683692;84;21509;-78
2021/07/23 01:58:56;;;;;;;1.65;1.52;;;;;;;17.40;72.18;99634.81;1726882;83;21032;-76
2021/07/23 02:01:23;;;;;;;1.87;1.75;;;;;;;17.39;72.22;99642.16;1699942;83;21059;-77
2021/07/23 02:03:51;;;;;;;1.72;1.62;;;;;;;17.37;72.32;99642.18;1686108;84;21019;-77
2021/07/23 02:06:18;;;;;;;2.50;2.08;;;;;;;17.37;72.44;99642.18;1698626;83;21501;-76
2021/07/23 02:08:45;;;;;;;3.85;1.75;;;;;;;17.34;72.35;99643.59;1729702;83;21063;-77
2021/07/23 02:11:11;;;;;;;2.17;1.98;;;;;;;17.32;72.23;99645.78;1729713;83;21014;-78
2021/07/23 02:13:38;;;;;;;1.30;1.20;;;;;;;17.29;72.16;99640.95;1730144;81;20987;-78
2021/07/23 02:16:05;;;;;;;1.85;1.65;;;;;;;17.27;72.22;99645.05;1729201;82;21556;-77
2021/07/23 02:18:33;;;;;;;2.72;2.30;;;;;;;17.26;72.40;99644.27;1727339;83;21046;-77
2021/07/23 02:21:07;;;;;;;4.47;2.05;;;;;;;17.27;72.41;99646.41;1727407;83;21441;-75
2021/07/23 02:23:34;;;;;;;3.03;1.77;;;;;;;17.24;72.34;99645.10;1701016;83;21504;-75
2021/07/23 02:26:00;;;;;;;2.98;1.82;;;;;;;17.22;72.33;99642.41;1700279;83;21336;-76
2021/07/23 02:28:27;;;;;;;3.58;1.92;;;;;;;17.18;72.54;99642.19;1700470;83;21553;-76
2021/07/23 02:30:55;;;;;;;1.95;1.75;;;;;;;17.16;72.63;99642.25;1727309;83;21184;-77
2021/07/23 02:33:25;;;;;;;2.87;1.82;;;;;;;17.14;72.81;99639.81;1727347;82;21017;-77
2021/07/23 02:36:12;;;;;;;4.92;2.15;;;;;;;17.14;72.90;99645.80;1726953;82;21024;-77
2021/07/23 02:38:40;;;;;;;8.40;1.72;;;;;;;17.15;72.98;99640.08;1670821;84;21575;-77
2021/07/23 02:41:08;;;;;;;2.70;1.82;;;;;;;17.17;73.03;99639.22;1671064;84;21060;-77
2021/07/23 02:43:34;;;;;;;4.17;2.25;;;;;;;17.19;73.04;99641.64;1711153;83;21276;-77
2021/07/23 02:46:01;;;;;;;3.60;1.75;;;;;;;17.20;73.16;99644.08;1700372;83;20980;-76
2021/07/23 02:48:28;;;;;;;3.65;1.65;;;;;;;17.19;73.08;99645.17;1719443;81;21608;-77
2021/07/23 02:50:57;;;;;;;2.50;1.70;;;;;;;17.19;73.00;99641.64;1696416;83;38974;-76
2021/07/23 02:53:23;;;;;;;5.35;1.60;;;;;;;17.16;73.27;99643.05;1725025;83;21006;-76
2021/07/23 02:55:51;;;;;;;3.77;2.20;;;;;;;17.16;73.41;99639.53;1702700;81;21248;-76
2021/07/23 02:58:18;;;;;;;2.85;1.75;;;;;;;17.14;73.36;99641.17;1722146;82;21552;-76
2021/07/23 03:00:45;;;;;;;2.98;1.85;;;;;;;17.12;73.57;99637.14;1739473;81;21536;-76
2021/07/23 03:03:12;;;;;;;2.92;1.85;;;;;;;17.10;73.76;99643.41;1702944;83;21576;-76
2021/07/23 03:05:39;;;;;;;1.67;1.57;;;;;;;17.09;73.88;99641.24;1722060;82;21169;-77
2021/07/23 03:08:08;;;;;;;3.12;2.20;;;;;;;17.09;73.87;99646.67;1718218;81;21127;-77
2021/07/23 03:10:37;;;;;;;2.80;2.17;;;;;;;17.11;73.84;99645.03;1716151;83;21004;-76
2021/07/23 03:13:04;;;;;;;2.85;1.87;;;;;;;17.13;73.90;99649.06;1699951;83;21082;-76
2021/07/23 03:15:33;;;;;;;4.12;2.00;;;;;;;17.16;74.13;99644.96;1727371;83;21003;-76
2021/07/23 03:18:00;;;;;;;2.30;1.90;;;;;;;17.18;74.06;99644.10;1733512;81;20991;-76
2021/07/23 03:20:28;;;;;;;2.35;2.22;;;;;;;17.17;74.20;99637.85;1685926;82;21073;-74
2021/07/23 03:22:55;;;;;;;2.50;1.90;;;;;;;17.16;74.16;99638.98;1734743;82;21074;-76
2021/07/23 03:25:29;;;;;;;2.37;1.72;;;;;;;17.14;74.13;99635.73;1700210;83;21509;-76
2021/07/23 03:28:03;;;;;;;2.27;2.02;;;;;;;17.14;74.21;99641.72;1725455;81;21087;-75
2021/07/23 03:30:33;;;;;;;6.92;2.12;;;;;;;17.12;74.27;99639.28;1726439;81;21069;-75
2021/07/23 03:33:02;;;;;;;5.37;2.08;;;;;;;17.13;74.29;99641.45;1706053;82;21131;-75
2021/07/23 03:35:29;;;;;;;2.10;1.90;;;;;;;17.15;74.21;99646.06;1705739;82;21053;-76
2021/07/23 03:37:57;;;;;;;2.20;2.00;;;;;;;17.16;74.16;99644.41;1707187;81;21003;-75
2021/07/23 03:40:25;;;;;;;2.30;2.10;;;;;;;17.18;74.06;99642.74;1768109;81;21066;-75
2021/07/23 03:42:53;;;;;;;2.00;1.90;;;;;;;17.17;74.05;99645.23;1716958;82;21513;-75
2021/07/23 03:45:21;;;;;;;3.08;2.20;;;;;;;17.17;74.08;99649.30;1688553;83;21086;-73
2021/07/23 03:47:52;;;;;;;1.90;1.80;;;;;;;17.17;74.17;99644.65;1713141;82;21015;-76
2021/07/23 03:50:19;;;;;;;2.33;1.90;;;;;;;17.20;74.26;99644.63;1693052;84;21106;-77
2021/07/23 03:52:54;;;;;;;6.28;2.52;;;;;;;17.25;74.33;99647.27;1696656;84;21511;-77
2021/07/23 03:55:41;;;;;;;3.22;1.95;;;;;;;17.26;74.40;99644.81;1671477;84;21420;-76
2021/07/23 03:58:10;;;;;;;5.45;2.08;;;;;;;17.29;74.42;99648.30;1703391;82;21248;-77
2021/07/23 04:00:38;;;;;;;2.25;1.90;;;;;;;17.31;74.44;99647.46;1710674;82;21060;-76
2021/07/23 04:03:05;;;;;;;3.05;2.05;;;;;;;17.35;74.45;99656.09;1671248;85;20952;-76
2021/07/23 04:05:31;;;;;;;5.22;2.02;;;;;;;17.39;74.49;99645.42;1672189;84;21119;-76
2021/07/23 04:08:01;;;;;;;5.17;2.20;;;;;;;17.44;74.37;99653.50;1722150;82;20972;-73
2021/07/23 04:10:29;;;;;;;6.05;1.90;;;;;;;17.50;74.20;99649.61;1731213;82;21037;-73
2021/07/23 04:12:56;;;;;;;3.27;1.95;;;;;;;17.56;74.06;99642.97;1707673;83;21003;-71
2021/07/23 04:15:23;;;;;;;7.90;2.45;;;;;;;17.61;73.97;99648.34;1722011;83;21036;-73
2021/07/23 04:17:53;;;;;;;6.62;2.25;;;;;;;17.63;73.83;99650.23;1659048;85;21029;-72
2021/07/23 04:20:19;;;;;;;4.03;1.98;;;;;;;17.68;73.91;99647.44;1639809;87;21059;-74
2021/07/23 04:22:47;;;;;;;5.65;1.95;;;;;;;17.72;73.92;99642.20;1658486;84;21777;-72
2021/07/23 04:25:16;;;;;;;2.15;1.90;;;;;;;17.77;73.75;99643.47;1672086;84;21524;-71
2021/07/23 04:27:43;;;;;;;5.45;2.20;;;;;;;17.83;73.56;99649.91;1700893;84;21116;-72
2021/07/23 04:30:13;;;;;;;2.45;1.75;;;;;;;17.90;73.43;99648.13;1670659;84;21075;-72
2021/07/23 04:32:58;;;;;;;2.52;2.30;;;;;;;17.94;73.27;99647.78;1689515;84;21118;-73
2021/07/23 04:35:26;;;;;;;3.42;1.75;;;;;;;18.01;73.13;99640.60;1667889;84;21493;-72
2021/07/23 04:37:53;;;;;;;4.35;2.12;;;;;;;18.05;73.05;99641.06;1616627;87;21076;-73
2021/07/23 04:40:21;;;;;;;3.40;2.00;;;;;;;18.09;72.91;99639.35;1682151;85;21076;-73
2021/07/23 04:42:49;;;;;;;3.72;2.05;;;;;;;18.14;72.78;99637.09;1645388;85;21552;-72
2021/07/23 04:45:16;;;;;;;2.00;1.72;;;;;;;18.20;72.74;99640.78;1687018;85;21003;-73
2021/07/23 04:47:44;;;;;;;4.15;2.95;;;;;;;18.26;72.42;99640.95;1685564;85;21129;-74
2021/07/23 04:50:11;;;;;;;4.03;1.80;;;;;;;18.34;72.20;99635.34;1679056;85;21021;-75
2021/07/23 04:52:57;;;;;;;2.65;2.12;;;;;;;18.40;72.00;99636.05;1696728;84;21063;-73
2021/07/23 04:55:42;;;;;;;6.00;1.82;;;;;;;18.48;71.74;99642.96;1654535;85;21099;-73
2021/07/23 04:58:13;;;;;;;5.50;2.00;;;;;;;18.53;71.41;99628.43;1654552;85;21059;-72
2021/07/23 05:00:38;;;;;;;4.05;2.20;;;;;;;18.59;71.34;99636.23;1685929;84;21104;-74
2021/07/23 05:03:05;;;;;;;6.70;2.58;;;;;;;18.64;71.04;99629.88;1685423;85;21063;-73
2021/07/23 05:05:31;;;;;;;3.05;1.55;;;;;;;18.69;70.93;99636.03;1676601;85;21039;-72
2021/07/23 05:07:58;;;;;;;3.85;2.00;;;;;;;18.75;70.54;99638.64;1640686;85;21088;-76
2021/07/23 05:10:25;;;;;;;1.62;1.52;;;;;;;18.81;70.11;99632.77;1687138;85;21050;-72
2021/07/23 05:12:53;;;;;;;2.72;1.85;;;;;;;18.90;69.62;99639.11;1686513;85;21012;-73
2021/07/23 05:15:21;;;;;;;6.90;2.08;;;;;;;18.98;69.06;99639.77;1685633;84;21469;-71
2021/07/23 05:17:48;;;;;;;3.10;1.82;;;;;;;19.05;68.81;99649.67;1698685;83;21056;-73
2021/07/23 05:20:14;;;;;;;2.50;2.10;;;;;;;19.11;68.48;99645.73;1716960;83;20981;-74
2021/07/23 05:22:40;;;;;;;5.15;2.30;;;;;;;19.16;68.36;99642.89;1716909;83;21115;-71
2021/07/23 05:25:08;;;;;;;4.65;2.62;;;;;;;19.22;68.17;99645.50;1742662;82;21108;-72
2021/07/23 05:27:35;;;;;;;4.72;2.10;;;;;;;19.26;67.59;99641.05;1695521;82;21055;-71
2021/07/23 05:30:02;;;;;;;3.15;1.98;;;;;;;19.31;67.17;99641.73;1726751;82;21035;-73
2021/07/23 05:32:28;;;;;;;2.52;2.30;;;;;;;19.36;66.52;99643.53;1682357;83;21081;-73
2021/07/23 05:34:55;;;;;;;4.58;2.22;;;;;;;19.39;66.31;99647.81;1720570;81;21051;-72
2021/07/23 05:37:22;;;;;;;2.85;2.37;;;;;;;19.43;65.78;99647.44;1742938;81;22127;-72
2021/07/23 05:39:50;;;;;;;6.00;2.10;;;;;;;19.48;66.21;99645.17;1724038;83;21509;-73
2021/07/23 05:42:16;;;;;;;5.42;2.50;;;;;;;19.52;65.96;99651.61;1729180;82;21043;-72
2021/07/23 05:44:42;;;;;;;3.12;2.62;;;;;;;19.55;65.33;99650.46;1708130;82;20989;-74
2021/07/23 05:47:09;;;;;;;3.17;2.40;;;;;;;19.60;65.46;99654.98;1715563;82;21043;-72
2021/07/23 05:49:35;;;;;;;4.83;2.95;;;;;;;19.65;64.73;99650.77;1730393;82;21207;-73
2021/07/23 05:52:02;;;;;;;5.10;3.00;;;;;;;19.68;64.10;99654.23;1701043;84;21112;-71
2021/07/23 05:54:28;;;;;;;4.70;2.45;;;;;;;19.72;63.33;99647.03;1675184;84;21112;-71
2021/07/23 05:56:55;;;;;;;7.15;2.90;;;;;;;19.78;62.79;99640.89;1706822;82;21052;-73
2021/07/23 05:59:21;;;;;;;13.18;3.60;;;;;;;19.84;63.51;99649.20;1739162;82;21028;-72
2021/07/23 06:01:48;;;;;;;4.83;2.92;;;;;;;19.90;63.05;99652.84;1716818;82;21074;-72
2021/07/23 06:04:14;;;;;;;8.40;3.08;;;;;;;19.96;62.82;99652.16;1729440;83;20928;-73
2021/07/23 06:06:41;;;;;;;7.22;1.98;;;;;;;20.01;63.10;99646.01;1707370;82;21540;-72
2021/07/23 06:09:07;;;;;;;7.10;3.50;;;;;;;20.06;61.35;99651.89;1734420;82;21508;-72
2021/07/23 06:11:34;;;;;;;3.70;2.92;;;;;;;20.12;60.55;99656.11;1724461;82;22302;-73
2021/07/23 06:14:01;;;;;;;5.85;3.12;;;;;;;20.20;60.76;99653.97;1705923;81;21798;-73
2021/07/23 06:16:27;;;;;;;4.30;2.50;;;;;;;20.27;61.30;99652.16;1691728;84;21504;-72
2021/07/23 06:18:55;;;;;;;4.08;2.72;;;;;;;20.30;61.44;99646.91;1691604;84;20949;-73
2021/07/23 06:21:21;;;;;;;7.15;2.98;;;;;;;20.35;61.17;99652.23;1728766;83;21024;-72
2021/07/23 06:23:48;;;;;;;6.58;3.10;;;;;;;20.42;60.41;99655.88;1716169;81;21008;-72
2021/07/23 06:26:14;;;;;;;5.30;2.65;;;;;;;20.47;60.06;99653.56;1762582;81;21082;-73
2021/07/23 06:28:41;;;;;;;4.78;2.87;;;;;;;20.51;59.68;99650.44;1740138;81;21014;-70
2021/07/23 06:31:07;;;;;;;8.33;3.85;;;;;;;20.55;60.19;99649.48;1740308;81;21196;-71
2021/07/23 06:33:33;;;;;;;4.12;2.65;;;;;;;20.61;60.37;99652.33;1718386;82;21105;-72
2021/07/23 06:36:03;;;;;;;5.08;2.42;;;;;;;20.66;60.41;99645.91;1729102;81;21060;-74
2021/07/23 06:38:30;;;;;;;11.40;3.40;;;;;;;20.71;56.19;99649.86;1724033;83;21961;-71
2021/07/23 06:40:56;;;;;;;5.37;2.35;;;;;;;20.81;57.02;99651.72;1724611;81;21071;-73
2021/07/23 06:43:22;;;;;;;3.47;2.67;;;;;;;20.88;57.70;99653.99;1695380;83;21177;-72
2021/07/23 06:45:54;;;;;;;4.35;2.52;;;;;;;20.94;56.85;99650.55;1735770;81;21088;-73
2021/07/23 06:48:21;;;;;;;9.48;1.75;;;;;;;21.00;56.34;99645.18;1702143;83;21596;-70
2021/07/23 06:50:49;;;;;;;3.00;2.10;;;;;;;21.05;56.30;99638.19;1760530;81;21116;-73
2021/07/23 06:53:16;;;;;;;5.97;2.25;;;;;;;21.09;56.54;99639.97;1718327;82;21082;-72
2021/07/23 06:55:43;;;;;;;4.80;2.27;;;;;;;21.16;56.14;99636.20;1674204;84;21681;-72
2021/07/23 06:58:10;;;;;;;4.62;1.95;;;;;;;21.25;56.16;99644.41;1690286;83;21011;-76
2021/07/23 07:00:36;;;;;;;3.80;2.55;;;;;;;21.31;55.74;99640.39;1717300;83;21008;-73
2021/07/23 07:03:08;;;;;;;5.53;1.50;;;;;;;21.39;53.64;99625.13;1698523;83;21775;-72
2021/07/23 07:05:35;;;;;;;4.03;2.62;;;;;;;21.45;51.28;99631.45;1715154;81;20932;-73
2021/07/23 07:08:01;;;;;;;3.45;1.65;;;;;;;21.52;50.92;99635.89;1716279;81;20987;-72
2021/07/23 07:10:28;;;;;;;2.60;1.75;;;;;;;21.58;51.70;99634.58;1756487;81;21067;-71
2021/07/23 07:12:58;;;;;;;9.95;2.47;;;;;;;21.67;52.13;99637.33;1747585;81;20892;-73
2021/07/23 07:15:26;;;;;;;3.17;1.55;;;;;;;21.75;52.53;99636.50;1730236;82;22092;-73
2021/07/23 07:17:59;;;;;;;3.42;1.70;;;;;;;21.81;50.56;99630.29;1749763;82;21059;-72
2021/07/23 07:20:26;;;;;;;28.70;18.60;;;;;;;21.89;48.50;99643.95;1741072;82;21051;-72
2021/07/23 07:22:52;;;;;;;4.47;3.05;;;;;;;21.96;47.86;99638.02;1721977;83;20987;-72
2021/07/23 07:25:21;;;;;;;2.05;1.72;;;;;;;21.98;47.67;99628.33;1728310;82;21024;-72
2021/07/23 07:27:48;;;;;;;3.80;1.47;;;;;;;21.99;48.22;99627.77;1704153;84;21353;-73
2021/07/23 07:30:15;;;;;;;1.42;1.20;;;;;;;22.01;48.62;99637.84;1679822;84;20988;-73
2021/07/23 07:32:41;;;;;;;5.20;1.02;;;;;;;22.04;47.89;99634.44;1665041;85;21545;-72
2021/07/23 07:35:09;;;;;;;2.05;1.27;;;;;;;22.09;48.26;99639.75;1669584;84;21536;-73
2021/07/23 07:37:35;;;;;;;2.47;1.20;;;;;;;22.13;48.60;99642.87;1657064;86;21080;-72
2021/07/23 07:40:02;;;;;;;2.20;1.22;;;;;;;22.18;49.24;99655.02;1663147;84;21682;-72
2021/07/23 07:42:30;;;;;;;5.53;1.65;;;;;;;22.23;49.02;99642.27;1672030;85;21740;-72
2021/07/23 07:44:58;;;;;;;3.47;1.70;;;;;;;22.24;48.82;99642.52;1672532;84;21000;-73
2021/07/23 07:47:24;;;;;;;2.85;1.30;;;;;;;22.27;48.87;99637.17;1646642;85;21075;-72
2021/07/23 07:49:50;;;;;;;1.20;1.10;;;;;;;22.31;47.90;99641.42;1681956;85;21043;-72
2021/07/23 07:52:19;;;;;;;3.27;1.57;;;;;;;22.36;48.08;99638.50;1640750;86;21201;-72
2021/07/23 07:54:46;;;;;;;1.60;1.10;;;;;;;22.38;48.28;99632.14;1662272;84;20952;-73
2021/07/23 07:57:12;;;;;;;4.15;1.20;;;;;;;22.43;47.85;99640.98;1674856;85;21004;-71
2021/07/23 07:59:39;;;;;;;4.58;2.33;;;;;;;22.52;45.96;99644.48;1704298;84;21053;-72
2021/07/23 08:02:09;;;;;;;12.23;1.47;;;;;;;22.59;45.63;99640.64;1674499;85;21068;-73
2021/07/23 08:04:37;;;;;;;2.05;1.05;;;;;;;22.63;45.69;99647.67;1680062;84;21259;-72
2021/07/23 08:07:18;;;;;;;25.15;2.05;;;;;;;22.69;44.58;99637.28;1658327;85;20972;-73
2021/07/23 08:09:56;;;;;;;1.70;1.45;;;;;;;22.74;44.72;99642.05;1646238;85;20998;-72
2021/07/23 08:12:22;;;;;;;1.75;1.20;;;;;;;22.75;45.09;99641.48;1683059;85;21103;-72
2021/07/23 08:14:48;;;;;;;5.40;0.93;;;;;;;22.75;44.74;99645.03;1682501;85;21068;-73
2021/07/23 08:17:15;;;;;;;3.72;1.20;;;;;;;22.79;44.58;99650.09;1640729;85;21094;-73
2021/07/23 08:19:43;;;;;;;3.72;0.98;;;;;;;22.83;44.64;99647.51;1679546;85;20963;-73
2021/07/23 08:22:10;;;;;;;2.70;0.95;;;;;;;22.86;44.60;99647.64;1718236;83;20990;-72
2021/07/23 08:24:38;;;;;;;12.68;1.25;;;;;;;22.89;45.14;99648.91;1722331;83;20987;-72
2021/07/23 08:27:04;;;;;;;3.42;1.12;;;;;;;22.91;44.83;99657.05;1699149;82;21055;-73
2021/07/23 08:29:31;;;;;;;3.08;0.90;;;;;;;22.92;44.20;99645.52;1692612;84;21096;-71
2021/07/23 08:32:11;;;;;;;1.90;1.22;;;;;;;22.92;43.60;99648.26;1651424;85;21084;-72
2021/07/23 08:34:38;;;;;;;3.90;1.42;;;;;;;22.91;42.98;99646.64;1696085;83;21061;-71
2021/07/23 08:37:05;;;;;;;3.05;0.90;;;;;;;22.92;43.01;99655.92;1703887;82;21086;-72
2021/07/23 08:39:31;;;;;;;2.30;1.17;;;;;;;22.95;42.89;99648.39;1714652;82;21077;-73
2021/07/23 08:41:58;;;;;;;1.92;1.40;;;;;;;23.00;42.80;99639.16;1726660;82;22168;-74
2021/07/23 08:44:28;;;;;;;1.62;1.05;;;;;;;23.06;42.83;99641.94;1709500;82;21519;-72
2021/07/23 08:46:54;;;;;;;2.35;1.50;;;;;;;23.07;43.30;99629.03;1717929;82;21024;-72
2021/07/23 08:49:20;;;;;;;5.67;1.72;;;;;;;23.09;41.83;99672.82;1645188;85;21635;-73
2021/07/23 08:51:51;;;;;;;1.57;0.90;;;;;;;23.11;42.52;99649.17;1703566;83;21098;-72
2021/07/23 08:54:18;;;;;;;2.35;1.20;;;;;;;23.14;42.01;99651.23;1719707;83;21178;-73
2021/07/23 08:56:48;;;;;;;4.28;1.85;;;;;;;23.12;41.40;99643.33;1727215;82;20947;-73
2021/07/23 08:59:15;;;;;;;2.37;0.90;;;;;;;23.16;41.90;99638.81;1726753;82;21033;-72
2021/07/23 09:01:59;;;;;;;1.12;0.98;;;;;;;23.22;42.16;99649.80;1685749;84;21008;-72
2021/07/23 09:04:32;;;;;;;5.78;1.32;;;;;;;23.23;41.85;99657.46;1705016;84;20988;-71
2021/07/23 09:07:22;;;;;;;4.70;1.17;;;;;;;23.26;41.62;99644.47;1724267;82;25022;-73
2021/07/23 09:10:04;;;;;;;2.10;0.70;;;;;;;23.29;41.68;99636.92;1726003;82;21028;-72
2021/07/23 09:12:47;;;;;;;1.05;0.95;;;;;;;23.34;41.82;99643.58;1678677;84;21107;-74
2021/07/23 09:15:17;;;;;;;1.57;1.10;;;;;;;23.39;41.33;99648.88;1705178;84;21040;-71
2021/07/23 09:17:44;;;;;;;5.70;1.65;;;;;;;23.41;41.46;99635.59;1731912;82;21048;-73
2021/07/23 09:20:11;;;;;;;4.25;1.42;;;;;;;23.42;41.22;99632.52;1705248;82;21617;-72
2021/07/23 09:22:49;;;;;;;4.22;1.30;;;;;;;23.44;41.40;99634.94;1701861;84;21008;-71
2021/07/23 09:25:15;;;;;;;6.62;2.12;;;;;;;23.45;41.52;99622.26;1702122;84;21474;-71
2021/07/23 09:27:42;;;;;;;4.53;1.77;;;;;;;23.49;41.56;99612.00;1702182;83;21086;-72
2021/07/23 09:30:12;;;;;;;2.52;1.80;;;;;;;23.56;41.60;99614.98;1716373;83;21008;-73
2021/07/23 09:32:38;;;;;;;3.05;1.87;;;;;;;23.62;41.73;99629.55;1700226;83;21146;-72
2021/07/23 09:35:15;;;;;;;3.58;2.05;;;;;;;23.68;41.53;99621.34;1696399;84;21100;-72
2021/07/23 09:37:58;;;;;;;8.23;2.83;;;;;;;23.73;40.63;99623.88;1729679;83;21015;-73
2021/07/23 09:40:24;;;;;;;3.90;1.77;;;;;;;23.76;40.62;99627.30;1716778;83;21485;-72
2021/07/23 09:43:00;;;;;;;5.78;1.70;;;;;;;23.81;40.96;99622.16;1728847;83;21531;-74
2021/07/23 09:45:31;;;;;;;2.35;1.77;;;;;;;23.85;40.71;99614.28;1729241;81;21109;-72
2021/07/23 09:48:13;;;;;;;4.25;2.37;;;;;;;23.88;40.87;99619.08;1768584;81;21007;-72
2021/07/23 09:50:48;;;;;;;2.20;1.57;;;;;;;23.92;40.43;99615.11;1714974;81;21071;-72
2021/07/23 09:53:19;;;;;;;8.53;1.90;;;;;;;24.01;40.54;99604.81;1716588;83;21314;-71
2021/07/23 09:55:46;;;;;;;3.85;2.80;;;;;;;24.07;40.45;99609.53;1741321;81;20968;-73
2021/07/23 09:58:21;;;;;;;3.70;1.50;;;;;;;24.14;40.49;99607.00;1727400;81;22206;-73
2021/07/23 10:01:00;;;;;;;3.40;2.15;;;;;;;24.16;40.24;99608.84;1695189;83;21068;-80
2021/07/23 10:03:27;;;;;;;6.47;2.27;;;;;;;24.14;40.33;99607.80;1699452;83;21011;-82
2021/07/23 10:06:04;;;;;;;3.33;2.62;;;;;;;24.12;40.38;99614.80;1708465;83;21051;-80
2021/07/23 10:08:33;;;;;;;2.98;1.70;;;;;;;24.13;40.19;99595.20;1686292;84;21016;-82
2021/07/23 10:11:02;;;;;;;3.45;1.40;;;;;;;24.20;40.14;99597.43;1705174;82;21237;-81
2021/07/23 10:13:30;;;;;;;6.15;1.60;;;;;;;24.25;40.18;99591.13;1680724;84;20894;-75
2021/07/23 10:15:57;;;;;;;5.45;1.57;;;;;;;24.33;40.15;99591.59;1688339;83;21006;-85
2021/07/23 10:18:23;;;;;;;2.85;1.45;;;;;;;24.41;40.46;99584.39;1729272;82;21015;-78
2021/07/23 10:20:50;;;;;;;2.40;1.47;;;;;;;24.50;40.19;99597.44;1716557;81;21099;-87
2021/07/23 10:23:20;;;;;;;3.33;1.20;;;;;;;24.55;39.95;99588.96;1684066;84;21037;-76
2021/07/23 10:25:52;;;;;;;4.10;1.72;;;;;;;24.63;39.51;99605.10;1724128;83;21158;-74
2021/07/23 10:28:44;;;;;;;2.07;1.67;;;;;;;24.67;39.49;99594.44;1724680;81;21010;-74
2021/07/23 10:31:30;;;;;;;5.97;1.92;;;;;;;24.70;39.95;99589.61;1693719;84;20986;-74
2021/07/23 10:34:00;;;;;;;2.27;1.80;;;;;;;24.78;39.48;99590.64;1716906;83;21004;-74
2021/07/23 10:36:32;;;;;;;4.65;1.57;;;;;;;24.87;39.42;99589.16;1724029;83;21995;-76
2021/07/23 10:39:10;;;;;;;1.90;1.50;;;;;;;24.95;39.35;99584.09;1731533;81;20936;-76
2021/07/23 10:41:48;;;;;;;3.65;1.72;;;;;;;25.04;39.28;99588.87;1738490;81;21086;-78
2021/07/23 10:44:33;;;;;;;4.62;1.50;;;;;;;25.14;38.94;99598.02;1698805;83;21119;-80
2021/07/23 10:46:59;;;;;;;4.47;2.70;;;;;;;25.22;38.40;99594.34;1700297;83;21094;-76
2021/07/23 10:49:35;;;;;;;3.62;1.80;;;;;;;25.13;38.28;99595.07;1724171;83;21453;-78
2021/07/23 10:52:05;;;;;;;2.30;2.10;;;;;;;25.17;38.28;99569.82;1723879;83;21006;-75
2021/07/23 10:54:34;;;;;;;2.92;2.15;;;;;;;25.25;37.88;99573.56;1723961;83;21090;-76
2021/07/23 10:57:06;;;;;;;2.25;2.05;;;;;;;25.25;38.04;99570.81;1715552;82;21460;-75
2021/07/23 10:59:44;;;;;;;3.30;1.57;;;;;;;25.27;38.79;99585.84;1696917;83;21047;-76
2021/07/23 11:02:18;;;;;;;3.47;1.70;;;;;;;25.32;38.71;99573.78;1720594;83;21012;-75
2021/07/23 11:04:46;;;;;;;5.55;2.00;;;;;;;25.38;38.77;99568.22;1713113;83;21049;-73
2021/07/23 11:07:15;;;;;;;2.17;1.72;;;;;;;25.39;38.47;99562.38;1673487;84;21043;-72
2021/07/23 11:09:44;;;;;;;8.50;1.72;;;;;;;25.43;38.70;99572.10;1674018;83;24617;-82
2021/07/23 11:12:20;;;;;;;3.55;1.87;;;;;;;25.47;37.77;99566.91;1696249;84;21095;-82
2021/07/23 11:14:53;;;;;;;3.05;2.40;;;;;;;25.43;37.67;99565.22;1696951;84;21163;-76
2021/07/23 11:17:19;;;;;;;2.85;2.62;;;;;;;25.46;38.13;99564.53;1696678;84;20959;-77
2021/07/23 11:19:52;;;;;;;4.50;3.50;;;;;;;25.51;38.18;99559.58;1692264;84;21060;-78
2021/07/23 11:22:26;;;;;;;1.67;1.50;;;;;;;25.61;38.21;99565.95;1661732;85;20960;-77
2021/07/23 11:24:57;;;;;;;4.47;2.25;;;;;;;25.60;37.98;99547.84;1661693;85;21059;-83
2021/07/23 11:27:31;;;;;;;3.15;2.05;;;;;;;25.66;37.61;99551.72;1648555;86;21547;-79
2021/07/23 11:29:59;;;;;;;1.70;1.47;;;;;;;25.76;37.63;99547.84;1642125;86;21575;-78
2021/07/23 11:32:28;;;;;;;2.45;1.95;;;;;;;25.90;37.73;99548.20;1644404;85;21059;-78
2021/07/23 11:35:06;;;;;;;1.85;1.75;;;;;;;26.01;37.61;99541.59;1684720;85;21024;-77
2021/07/23 11:37:32;;;;;;;3.65;1.85;;;;;;;26.12;37.39;99536.34;1669495;85;21145;-80
2021/07/23 11:40:01;;;;;;;2.80;1.95;;;;;;;26.20;37.26;99555.45;1641861;86;21308;-74
2021/07/23 11:42:35;;;;;;;2.00;1.55;;;;;;;26.29;36.97;99545.64;1641811;86;21103;-74